sensor_id;sensor_type;location;lat;lon;timestamp;pressure;altitude;pressure_sealevel;temperature
13219;BMP180;6674;49.152;11.918;2023-07-28T00:01:09;95361.28;;;17.03
13219;BMP180;6674;49.152;11.918;2023-07-28T00:03:36;95375.59;;;17.06
13219;BMP180;6674;49.152;11.918;2023-07-28T00:06:03;95371.19;;;17.01
13219;BMP180;6674;49.152;11.918;2023-07-28T00:08:29;95368.31;;;17.03
13219;BMP180;6674;49.152;11.918;2023-07-28T00:10:56;95357.19;;;16.92
13219;BMP180;6674;49.152;11.918;2023-07-28T00:13:23;95362.84;;;17.04
13219;BMP180;6674;49.152;11.918;2023-07-28T00:15:51;95365.72;;;17.03
13219;BMP180;6674;49.152;11.918;2023-07-28T00:18:17;95364.41;;;17.05
13219;BMP180;6674;49.152;11.918;2023-07-28T00:20:46;95358.66;;;17.08
13219;BMP180;6674;49.152;11.918;2023-07-28T00:23:13;95354.75;;;17.06
13219;BMP180;6674;49.152;11.918;2023-07-28T00:25:40;95353.75;;;17.02
13219;BMP180;6674;49.152;11.918;2023-07-28T00:28:07;95363.91;;;16.98
13219;BMP180;6674;49.152;11.918;2023-07-28T00:30:34;95350.63;;;17.00
13219;BMP180;6674;49.152;11.918;2023-07-28T00:33:02;95348.28;;;16.98
13219;BMP180;6674;49.152;11.918;2023-07-28T00:35:28;95355.63;;;16.91
13219;BMP180;6674;49.152;11.918;2023-07-28T00:37:55;95359.56;;;16.89
13219;BMP180;6674;49.152;11.918;2023-07-28T00:40:22;95347.53;;;16.93
13219;BMP180;6674;49.152;11.918;2023-07-28T00:42:49;95335.84;;;16.90
13219;BMP180;6674;49.152;11.918;2023-07-28T00:45:16;95347.56;;;16.88
13219;BMP180;6674;49.152;11.918;2023-07-28T00:47:42;95345.22;;;16.86
13219;BMP180;6674;49.152;11.918;2023-07-28T00:50:11;95351.22;;;16.82
13219;BMP180;6674;49.152;11.918;2023-07-28T00:52:38;95339.78;;;16.83
13219;BMP180;6674;49.152;11.918;2023-07-28T00:55:06;95333.25;;;16.81
13219;BMP180;6674;49.152;11.918;2023-07-28T00:57:34;95329.38;;;16.78
13219;BMP180;6674;49.152;11.918;2023-07-28T01:00:01;95323.88;;;16.84
13219;BMP180;6674;49.152;11.918;2023-07-28T01:02:28;95329.34;;;16.83
13219;BMP180;6674;49.152;11.918;2023-07-28T01:04:54;95318.94;;;16.83
13219;BMP180;6674;49.152;11.918;2023-07-28T01:07:26;95322.34;;;16.79
13219;BMP180;6674;49.152;11.918;2023-07-28T01:10:00;95314.03;;;16.77
13219;BMP180;6674;49.152;11.918;2023-07-28T01:12:27;95324.91;;;16.83
13219;BMP180;6674;49.152;11.918;2023-07-28T01:14:54;95323.91;;;16.80
13219;BMP180;6674;49.152;11.918;2023-07-28T01:17:20;95320.81;;;16.78
13219;BMP180;6674;49.152;11.918;2023-07-28T01:19:49;95323.91;;;16.80
13219;BMP180;6674;49.152;11.918;2023-07-28T01:22:45;95314.53;;;16.79
13219;BMP180;6674;49.152;11.918;2023-07-28T01:25:18;95315.59;;;16.78
13219;BMP180;6674;49.152;11.918;2023-07-28T01:27:51;95328.06;;;16.76
13219;BMP180;6674;49.152;11.918;2023-07-28T01:30:18;95315.38;;;16.64
13219;BMP180;6674;49.152;11.918;2023-07-28T01:32:47;95316.91;;;16.75
13219;BMP180;6674;49.152;11.918;2023-07-28T01:35:13;95318.78;;;16.65
13219;BMP180;6674;49.152;11.918;2023-07-28T01:37:40;95315.63;;;16.73
13219;BMP180;6674;49.152;11.918;2023-07-28T01:40:08;95315.31;;;16.74
13219;BMP180;6674;49.152;11.918;2023-07-28T01:42:35;95313.00;;;16.78
13219;BMP180;6674;49.152;11.918;2023-07-28T01:45:02;95315.34;;;16.69
13219;BMP180;6674;49.152;11.918;2023-07-28T01:47:29;95311.44;;;16.72
13219;BMP180;6674;49.152;11.918;2023-07-28T01:49:57;95313.00;;;16.73
13219;BMP180;6674;49.152;11.918;2023-07-28T01:52:23;95319.75;;;16.74
13219;BMP180;6674;49.152;11.918;2023-07-28T01:54:51;95321.56;;;16.78
13219;BMP180;6674;49.152;11.918;2023-07-28T01:57:19;95310.88;;;16.80
13219;BMP180;6674;49.152;11.918;2023-07-28T01:59:46;95296.31;;;16.74
13219;BMP180;6674;49.152;11.918;2023-07-28T02:02:14;95315.59;;;16.78
13219;BMP180;6674;49.152;11.918;2023-07-28T02:04:40;95320.25;;;16.81
13219;BMP180;6674;49.152;11.918;2023-07-28T02:07:07;95322.34;;;16.79
13219;BMP180;6674;49.152;11.918;2023-07-28T02:09:33;95325.44;;;16.81
13219;BMP180;6674;49.152;11.918;2023-07-28T02:12:00;95323.38;;;16.83
13219;BMP180;6674;49.152;11.918;2023-07-28T02:14:27;95324.38;;;16.86
13219;BMP180;6674;49.152;11.918;2023-07-28T02:16:54;95325.16;;;16.87
13219;BMP180;6674;49.152;11.918;2023-07-28T02:19:22;95330.38;;;16.87
13219;BMP180;6674;49.152;11.918;2023-07-28T02:21:48;95317.59;;;16.85
13219;BMP180;6674;49.152;11.918;2023-07-28T02:24:15;95325.97;;;16.87
13219;BMP180;6674;49.152;11.918;2023-07-28T02:26:42;95317.34;;;16.87
13219;BMP180;6674;49.152;11.918;2023-07-28T02:29:08;95316.84;;;16.85
13219;BMP180;6674;49.152;11.918;2023-07-28T02:31:35;95315.00;;;16.90
13219;BMP180;6674;49.152;11.918;2023-07-28T02:34:02;95322.25;;;16.93
13219;BMP180;6674;49.152;11.918;2023-07-28T02:36:30;95309.22;;;16.93
13219;BMP180;6674;49.152;11.918;2023-07-28T02:38:57;95299.59;;;16.94
13219;BMP180;6674;49.152;11.918;2023-07-28T02:41:25;95307.69;;;16.92
13219;BMP180;6674;49.152;11.918;2023-07-28T02:43:52;95305.28;;;17.01
13219;BMP180;6674;49.152;11.918;2023-07-28T02:46:19;95303.19;;;17.03
13219;BMP180;6674;49.152;11.918;2023-07-28T02:48:45;95311.50;;;17.05
13219;BMP180;6674;49.152;11.918;2023-07-28T02:51:12;95312.06;;;17.02
13219;BMP180;6674;49.152;11.918;2023-07-28T02:53:40;95320.88;;;17.11
13219;BMP180;6674;49.152;11.918;2023-07-28T02:56:07;95317.22;;;17.12
13219;BMP180;6674;49.152;11.918;2023-07-28T02:58:33;95316.94;;;17.13
13219;BMP180;6674;49.152;11.918;2023-07-28T03:01:00;95309.66;;;17.10
13219;BMP180;6674;49.152;11.918;2023-07-28T03:03:27;95310.13;;;17.17
13219;BMP180;6674;49.152;11.918;2023-07-28T03:05:53;95304.16;;;17.17
13219;BMP180;6674;49.152;11.918;2023-07-28T03:08:20;95311.72;;;17.18
13219;BMP180;6674;49.152;11.918;2023-07-28T03:10:48;95304.41;;;17.20
13219;BMP180;6674;49.152;11.918;2023-07-28T03:13:15;95305.47;;;17.19
13219;BMP180;6674;49.152;11.918;2023-07-28T03:15:41;95306.75;;;17.17
13219;BMP180;6674;49.152;11.918;2023-07-28T03:18:08;95314.59;;;17.17
13219;BMP180;6674;49.152;11.918;2023-07-28T03:20:35;95309.13;;;17.13
13219;BMP180;6674;49.152;11.918;2023-07-28T03:23:02;95309.91;;;17.14
13219;BMP180;6674;49.152;11.918;2023-07-28T03:25:29;95318.00;;;17.12
13219;BMP180;6674;49.152;11.918;2023-07-28T03:27:58;95316.94;;;17.13
13219;BMP180;6674;49.152;11.918;2023-07-28T03:30:24;95310.72;;;17.09
13219;BMP180;6674;49.152;11.918;2023-07-28T03:32:51;95309.44;;;17.07
13219;BMP180;6674;49.152;11.918;2023-07-28T03:35:18;95308.63;;;17.06
13219;BMP180;6674;49.152;11.918;2023-07-28T03:37:44;95304.22;;;17.07
13219;BMP180;6674;49.152;11.918;2023-07-28T03:40:11;95308.94;;;17.00
13219;BMP180;6674;49.152;11.918;2023-07-28T03:42:38;95309.72;;;17.00
13219;BMP180;6674;49.152;11.918;2023-07-28T03:45:07;95301.94;;;16.95
13219;BMP180;6674;49.152;11.918;2023-07-28T03:47:34;95300.41;;;16.89
13219;BMP180;6674;49.152;11.918;2023-07-28T03:50:02;95309.22;;;16.93
13219;BMP180;6674;49.152;11.918;2023-07-28T03:52:29;95305.34;;;16.91
13219;BMP180;6674;49.152;11.918;2023-07-28T03:54:55;95295.69;;;16.91
13219;BMP180;6674;49.152;11.918;2023-07-28T03:57:22;95307.72;;;16.87
13219;BMP180;6674;49.152;11.918;2023-07-28T03:59:49;95304.84;;;16.89
13219;BMP180;6674;49.152;11.918;2023-07-28T04:02:17;95310.31;;;16.87
13219;BMP180;6674;49.152;11.918;2023-07-28T04:04:43;95314.47;;;16.88
13219;BMP180;6674;49.152;11.918;2023-07-28T04:07:10;95307.97;;;16.91
13219;BMP180;6674;49.152;11.918;2023-07-28T04:09:37;95305.09;;;16.92
13219;BMP180;6674;49.152;11.918;2023-07-28T04:12:04;95316.00;;;16.94
13219;BMP180;6674;49.152;11.918;2023-07-28T04:14:31;95324.31;;;16.96
13219;BMP180;6674;49.152;11.918;2023-07-28T04:16:57;95319.66;;;16.93
13219;BMP180;6674;49.152;11.918;2023-07-28T04:19:25;95323.81;;;16.94
13219;BMP180;6674;49.152;11.918;2023-07-28T04:21:54;95323.28;;;16.97
13219;BMP180;6674;49.152;11.918;2023-07-28T04:24:20;95331.63;;;16.94
13219;BMP180;6674;49.152;11.918;2023-07-28T04:26:47;95330.56;;;17.00
13219;BMP180;6674;49.152;11.918;2023-07-28T04:29:15;95331.59;;;17.04
13219;BMP180;6674;49.152;11.918;2023-07-28T04:31:41;95328.72;;;17.06
13219;BMP180;6674;49.152;11.918;2023-07-28T04:34:08;95340.44;;;17.08
13219;BMP180;6674;49.152;11.918;2023-07-28T04:36:36;95328.19;;;17.09
13219;BMP180;6674;49.152;11.918;2023-07-28T04:39:03;95335.72;;;17.10
13219;BMP180;6674;49.152;11.918;2023-07-28T04:41:30;95340.41;;;17.13
13219;BMP180;6674;49.152;11.918;2023-07-28T04:43:56;95345.06;;;17.16
13219;BMP180;6674;49.152;11.918;2023-07-28T04:46:23;95343.00;;;17.13
13219;BMP180;6674;49.152;11.918;2023-07-28T04:48:50;95333.38;;;17.09
13219;BMP180;6674;49.152;11.918;2023-07-28T04:51:16;95339.38;;;17.09
13219;BMP180;6674;49.152;11.918;2023-07-28T04:53:44;95341.44;;;17.12
13219;BMP180;6674;49.152;11.918;2023-07-28T04:56:12;95329.41;;;17.16
13219;BMP180;6674;49.152;11.918;2023-07-28T04:58:39;95340.88;;;17.25
13219;BMP180;6674;49.152;11.918;2023-07-28T05:01:05;95343.47;;;17.25
13219;BMP180;6674;49.152;11.918;2023-07-28T05:03:35;95342.91;;;17.33
13219;BMP180;6674;49.152;11.918;2023-07-28T05:06:03;95343.91;;;17.37
13219;BMP180;6674;49.152;11.918;2023-07-28T05:08:29;95340.25;;;17.38
13219;BMP180;6674;49.152;11.918;2023-07-28T05:10:57;95341.31;;;17.37
13219;BMP180;6674;49.152;11.918;2023-07-28T05:13:26;95339.19;;;17.39
13219;BMP180;6674;49.152;11.918;2023-07-28T05:15:52;95336.94;;;17.27
13219;BMP180;6674;49.152;11.918;2023-07-28T05:18:19;95335.34;;;17.31
13219;BMP180;6674;49.152;11.918;2023-07-28T05:20:46;95336.88;;;17.32
13219;BMP180;6674;49.152;11.918;2023-07-28T05:23:12;95338.47;;;17.33
13219;BMP180;6674;49.152;11.918;2023-07-28T05:25:39;95345.50;;;17.33
13219;BMP180;6674;49.152;11.918;2023-07-28T05:28:07;95354.88;;;17.34
13219;BMP180;6674;49.152;11.918;2023-07-28T05:30:35;95345.50;;;17.33
13219;BMP180;6674;49.152;11.918;2023-07-28T05:33:01;95353.63;;;17.27
13219;BMP180;6674;49.152;11.918;2023-07-28T05:35:28;95345.00;;;17.26
13219;BMP180;6674;49.152;11.918;2023-07-28T05:37:55;95345.00;;;17.26
13219;BMP180;6674;49.152;11.918;2023-07-28T05:40:27;95349.44;;;17.30
13219;BMP180;6674;49.152;11.918;2023-07-28T05:42:54;95340.59;;;17.27
13219;BMP180;6674;49.152;11.918;2023-07-28T05:45:22;95340.78;;;17.35
13219;BMP180;6674;49.152;11.918;2023-07-28T05:47:49;95341.34;;;17.32
13219;BMP180;6674;49.152;11.918;2023-07-28T05:50:15;95349.94;;;17.32
13219;BMP180;6674;49.152;11.918;2023-07-28T05:52:43;95345.00;;;17.31
13219;BMP180;6674;49.152;11.918;2023-07-28T05:55:09;95355.41;;;17.36
13219;BMP180;6674;49.152;11.918;2023-07-28T05:57:36;95358.75;;;17.41
13219;BMP180;6674;49.152;11.918;2023-07-28T06:00:03;95351.44;;;17.43
13219;BMP180;6674;49.152;11.918;2023-07-28T06:02:32;95349.03;;;17.47
13219;BMP180;6674;49.152;11.918;2023-07-28T06:04:58;95348.53;;;17.45
13219;BMP180;6674;49.152;11.918;2023-07-28T06:07:25;95351.66;;;17.47
13219;BMP180;6674;49.152;11.918;2023-07-28T06:09:52;95372.50;;;17.47
13219;BMP180;6674;49.152;11.918;2023-07-28T06:12:19;95354.75;;;17.49
13219;BMP180;6674;49.152;11.918;2023-07-28T06:14:47;95356.28;;;17.55
13219;BMP180;6674;49.152;11.918;2023-07-28T06:17:15;95357.81;;;17.61
13219;BMP180;6674;49.152;11.918;2023-07-28T06:19:45;95349.47;;;17.64
13219;BMP180;6674;49.152;11.918;2023-07-28T06:22:12;95345.28;;;17.63
13219;BMP180;6674;49.152;11.918;2023-07-28T06:24:39;95357.28;;;17.64
13219;BMP180;6674;49.152;11.918;2023-07-28T06:27:06;95372.63;;;17.70
13219;BMP180;6674;49.152;11.918;2023-07-28T06:29:35;95367.16;;;17.67
13219;BMP180;6674;49.152;11.918;2023-07-28T06:32:02;95368.41;;;17.74
13219;BMP180;6674;49.152;11.918;2023-07-28T06:34:29;95380.69;;;17.73
13219;BMP180;6674;49.152;11.918;2023-07-28T06:36:57;95379.84;;;17.78
13219;BMP180;6674;49.152;11.918;2023-07-28T06:39:24;95384.78;;;17.79
13219;BMP180;6674;49.152;11.918;2023-07-28T06:41:50;95380.38;;;17.80
13219;BMP180;6674;49.152;11.918;2023-07-28T06:44:17;95385.78;;;17.88
13219;BMP180;6674;49.152;11.918;2023-07-28T06:46:44;95378.91;;;17.97
13219;BMP180;6674;49.152;11.918;2023-07-28T06:49:10;95377.53;;;18.05
13219;BMP180;6674;49.152;11.918;2023-07-28T06:51:37;95399.19;;;18.05
13219;BMP180;6674;49.152;11.918;2023-07-28T06:54:05;95390.78;;;18.13
13219;BMP180;6674;49.152;11.918;2023-07-28T06:56:36;95392.81;;;18.21
13219;BMP180;6674;49.152;11.918;2023-07-28T06:59:03;95393.59;;;18.21
13219;BMP180;6674;49.152;11.918;2023-07-28T07:01:30;95399.03;;;18.25
13219;BMP180;6674;49.152;11.918;2023-07-28T07:03:57;95383.47;;;18.10
13219;BMP180;6674;49.152;11.918;2023-07-28T07:06:23;95388.41;;;18.16
13219;BMP180;6674;49.152;11.918;2023-07-28T07:08:50;95385.53;;;18.18
13219;BMP180;6674;49.152;11.918;2023-07-28T07:11:19;95384.94;;;18.26
13219;BMP180;6674;49.152;11.918;2023-07-28T07:13:46;95387.00;;;18.29
13219;BMP180;6674;49.152;11.918;2023-07-28T07:16:14;95388.00;;;18.33
13219;BMP180;6674;49.152;11.918;2023-07-28T07:18:42;95402.06;;;18.37
13219;BMP180;6674;49.152;11.918;2023-07-28T07:21:09;95399.69;;;18.40
13219;BMP180;6674;49.152;11.918;2023-07-28T07:23:35;95400.75;;;18.34
13219;BMP180;6674;49.152;11.918;2023-07-28T07:26:02;95407.19;;;18.47
13219;BMP180;6674;49.152;11.918;2023-07-28T07:28:31;95407.13;;;18.52
13219;BMP180;6674;49.152;11.918;2023-07-28T07:30:57;95404.91;;;18.63
13219;BMP180;6674;49.152;11.918;2023-07-28T07:33:24;95401.13;;;18.74
13219;BMP180;6674;49.152;11.918;2023-07-28T07:35:51;95414.69;;;18.76
13219;BMP180;6674;49.152;11.918;2023-07-28T07:38:17;95397.16;;;18.77
13219;BMP180;6674;49.152;11.918;2023-07-28T07:40:46;95406.50;;;18.83
13219;BMP180;6674;49.152;11.918;2023-07-28T07:43:15;95405.75;;;18.82
13219;BMP180;6674;49.152;11.918;2023-07-28T07:45:46;95408.03;;;18.89
13219;BMP180;6674;49.152;11.918;2023-07-28T07:48:15;95407.97;;;18.94
13219;BMP180;6674;49.152;11.918;2023-07-28T07:50:42;95414.94;;;19.03
13219;BMP180;6674;49.152;11.918;2023-07-28T07:53:08;95424.91;;;18.96
13219;BMP180;6674;49.152;11.918;2023-07-28T07:55:35;95412.91;;;18.95
13219;BMP180;6674;49.152;11.918;2023-07-28T07:58:02;95415.50;;;19.00
13219;BMP180;6674;49.152;11.918;2023-07-28T08:00:29;95414.97;;;18.98
13219;BMP180;6674;49.152;11.918;2023-07-28T08:02:57;95410.16;;;19.10
13219;BMP180;6674;49.152;11.918;2023-07-28T08:05:24;95411.41;;;19.12
13219;BMP180;6674;49.152;11.918;2023-07-28T08:07:50;95418.84;;;19.24
13219;BMP180;6674;49.152;11.918;2023-07-28T08:10:17;95420.19;;;19.40
13219;BMP180;6674;49.152;11.918;2023-07-28T08:12:45;95435.41;;;19.38
13219;BMP180;6674;49.152;11.918;2023-07-28T08:15:12;95437.81;;;19.34
13219;BMP180;6674;49.152;11.918;2023-07-28T08:17:39;95432.78;;;19.38
13219;BMP180;6674;49.152;11.918;2023-07-28T08:20:08;95441.97;;;19.35
13219;BMP180;6674;49.152;11.918;2023-07-28T08:22:36;95436.44;;;19.37
13219;BMP180;6674;49.152;11.918;2023-07-28T08:25:03;95442.13;;;19.44
13219;BMP180;6674;49.152;11.918;2023-07-28T08:27:30;95443.09;;;19.47
13219;BMP180;6674;49.152;11.918;2023-07-28T08:29:57;95448.41;;;19.61
13219;BMP180;6674;49.152;11.918;2023-07-28T08:32:23;95464.03;;;19.47
13219;BMP180;6674;49.152;11.918;2023-07-28T08:34:50;95451.72;;;19.48
13219;BMP180;6674;49.152;11.918;2023-07-28T08:37:18;95464.03;;;19.47
13219;BMP180;6674;49.152;11.918;2023-07-28T08:39:45;95461.41;;;19.47
13219;BMP180;6674;49.152;11.918;2023-07-28T08:42:13;95459.72;;;19.56
13219;BMP180;6674;49.152;11.918;2023-07-28T08:44:40;95471.81;;;19.52
13219;BMP180;6674;49.152;11.918;2023-07-28T08:47:08;95481.72;;;19.55
13219;BMP180;6674;49.152;11.918;2023-07-28T08:49:35;95479.72;;;19.47
13219;BMP180;6674;49.152;11.918;2023-07-28T08:52:03;95476.41;;;19.60
13219;BMP180;6674;49.152;11.918;2023-07-28T08:54:32;95478.91;;;19.52
13219;BMP180;6674;49.152;11.918;2023-07-28T08:56:59;95474.44;;;19.52
13219;BMP180;6674;49.152;11.918;2023-07-28T08:59:27;95478.53;;;19.58
13219;BMP180;6674;49.152;11.918;2023-07-28T09:01:55;95481.66;;;19.60
13219;BMP180;6674;49.152;11.918;2023-07-28T09:04:23;95482.91;;;19.63
13219;BMP180;6674;49.152;11.918;2023-07-28T09:06:50;95480.09;;;19.59
13219;BMP180;6674;49.152;11.918;2023-07-28T09:09:20;95487.59;;;19.66
13219;BMP180;6674;49.152;11.918;2023-07-28T09:11:50;95482.63;;;19.64
13219;BMP180;6674;49.152;11.918;2023-07-28T09:14:18;95495.78;;;19.59
13219;BMP180;6674;49.152;11.918;2023-07-28T09:16:45;95501.88;;;19.55
13219;BMP180;6674;49.152;11.918;2023-07-28T09:19:12;95485.09;;;19.56
13219;BMP180;6674;49.152;11.918;2023-07-28T09:21:42;95506.09;;;19.51
13219;BMP180;6674;49.152;11.918;2023-07-28T09:24:10;95504.44;;;19.37
13219;BMP180;6674;49.152;11.918;2023-07-28T09:26:38;95506.06;;;19.33
13219;BMP180;6674;49.152;11.918;2023-07-28T09:29:13;95505.00;;;19.34
13219;BMP180;6674;49.152;11.918;2023-07-28T09:31:41;95495.50;;;19.43
13219;BMP180;6674;49.152;11.918;2023-07-28T09:34:08;95502.69;;;19.32
13219;BMP180;6674;49.152;11.918;2023-07-28T09:36:36;95504.44;;;19.37
13219;BMP180;6674;49.152;11.918;2023-07-28T09:39:04;95501.81;;;19.37
13219;BMP180;6674;49.152;11.918;2023-07-28T09:41:34;95497.41;;;19.55
13219;BMP180;6674;49.152;11.918;2023-07-28T09:44:01;95508.44;;;19.52
13219;BMP180;6674;49.152;11.918;2023-07-28T09:46:30;95502.69;;;19.32
13219;BMP180;6674;49.152;11.918;2023-07-28T09:48:59;95509.25;;;19.30
13219;BMP180;6674;49.152;11.918;2023-07-28T09:51:31;95514.53;;;19.25
13219;BMP180;6674;49.152;11.918;2023-07-28T09:54:05;95510.19;;;19.15
13219;BMP180;6674;49.152;11.918;2023-07-28T09:56:32;95507.34;;;19.12
13219;BMP180;6674;49.152;11.918;2023-07-28T09:59:01;95511.06;;;19.06
13219;BMP180;6674;49.152;11.918;2023-07-28T10:01:30;95513.75;;;19.01
13219;BMP180;6674;49.152;11.918;2023-07-28T10:03:58;95512.69;;;19.02
13219;BMP180;6674;49.152;11.918;2023-07-28T10:06:25;95505.03;;;19.10
13219;BMP180;6674;49.152;11.918;2023-07-28T10:08:52;95503.59;;;19.23
13219;BMP180;6674;49.152;11.918;2023-07-28T10:11:19;95495.00;;;19.41
13219;BMP180;6674;49.152;11.918;2023-07-28T10:13:51;95498.75;;;19.53
13219;BMP180;6674;49.152;11.918;2023-07-28T10:16:20;95512.97;;;19.65
13219;BMP180;6674;49.152;11.918;2023-07-28T10:18:58;95510.09;;;19.67
13219;BMP180;6674;49.152;11.918;2023-07-28T10:21:27;95514.56;;;19.66
13219;BMP180;6674;49.152;11.918;2023-07-28T10:23:55;95507.50;;;19.85
13219;BMP180;6674;49.152;11.918;2023-07-28T10:26:31;95508.38;;;19.99
13219;BMP180;6674;49.152;11.918;2023-07-28T10:29:08;95513.44;;;20.09
13219;BMP180;6674;49.152;11.918;2023-07-28T10:31:36;95516.47;;;20.16
13219;BMP180;6674;49.152;11.918;2023-07-28T10:34:04;95506.50;;;20.18
13219;BMP180;6674;49.152;11.918;2023-07-28T10:36:34;95511.72;;;20.18
13219;BMP180;6674;49.152;11.918;2023-07-28T10:39:12;95513.00;;;20.02
13219;BMP180;6674;49.152;11.918;2023-07-28T10:41:40;95515.41;;;19.98
13219;BMP180;6674;49.152;11.918;2023-07-28T10:44:21;95510.69;;;20.00
13219;BMP180;6674;49.152;11.918;2023-07-28T10:46:47;95517.84;;;19.95
13219;BMP180;6674;49.152;11.918;2023-07-28T10:49:16;95514.72;;;19.93
13219;BMP180;6674;49.152;11.918;2023-07-28T10:51:43;95514.91;;;19.78
13219;BMP180;6674;49.152;11.918;2023-07-28T10:54:09;95519.13;;;19.74
13219;BMP180;6674;49.152;11.918;2023-07-28T10:56:42;95522.09;;;19.68
13219;BMP180;6674;49.152;11.918;2023-07-28T10:59:08;95516.09;;;19.67
13219;BMP180;6674;49.152;11.918;2023-07-28T11:01:36;95518.16;;;19.70
13219;BMP180;6674;49.152;11.918;2023-07-28T11:04:08;95521.53;;;19.71
13219;BMP180;6674;49.152;11.918;2023-07-28T11:06:37;95516.16;;;19.81
13219;BMP180;6674;49.152;11.918;2023-07-28T11:09:05;95521.88;;;19.88
13219;BMP180;6674;49.152;11.918;2023-07-28T11:11:33;95521.00;;;19.92
13219;BMP180;6674;49.152;11.918;2023-07-28T11:14:02;95525.41;;;19.96
13219;BMP180;6674;49.152;11.918;2023-07-28T11:16:30;95520.03;;;20.06
13219;BMP180;6674;49.152;11.918;2023-07-28T11:19:00;95513.72;;;20.26
13219;BMP180;6674;49.152;11.918;2023-07-28T11:21:28;95521.41;;;20.35
13219;BMP180;6674;49.152;11.918;2023-07-28T11:23:57;95512.50;;;20.36
13219;BMP180;6674;49.152;11.918;2023-07-28T11:26:26;95502.22;;;20.40
13219;BMP180;6674;49.152;11.918;2023-07-28T11:28:53;95506.06;;;20.61
13219;BMP180;6674;49.152;11.918;2023-07-28T11:31:23;95503.81;;;20.54
13219;BMP180;6674;49.152;11.918;2023-07-28T11:33:52;95524.38;;;20.47
13219;BMP180;6674;49.152;11.918;2023-07-28T11:36:22;95511.94;;;20.21
13219;BMP180;6674;49.152;11.918;2023-07-28T11:38:51;95507.97;;;20.24
13219;BMP180;6674;49.152;11.918;2023-07-28T11:41:20;95516.03;;;20.27
13219;BMP180;6674;49.152;11.918;2023-07-28T11:43:47;95516.25;;;20.31
13219;BMP180;6674;49.152;11.918;2023-07-28T11:46:34;95515.13;;;20.36
13219;BMP180;6674;49.152;11.918;2023-07-28T11:49:09;95516.13;;;20.54
13219;BMP180;6674;49.152;11.918;2023-07-28T11:51:39;95511.38;;;20.74
13219;BMP180;6674;49.152;11.918;2023-07-28T11:54:10;95508.88;;;20.96
13219;BMP180;6674;49.152;11.918;2023-07-28T11:56:39;95507.22;;;21.26
13219;BMP180;6674;49.152;11.918;2023-07-28T11:59:06;95513.56;;;21.25
13219;BMP180;6674;49.152;11.918;2023-07-28T12:01:33;95500.66;;;21.16
13219;BMP180;6674;49.152;11.918;2023-07-28T12:04:24;95504.91;;;21.38
13219;BMP180;6674;49.152;11.918;2023-07-28T12:07:05;95497.44;;;21.45
13219;BMP180;6674;49.152;11.918;2023-07-28T12:09:33;95507.94;;;21.45
13219;BMP180;6674;49.152;11.918;2023-07-28T12:12:01;95513.56;;;21.25
13219;BMP180;6674;49.152;11.918;2023-07-28T12:14:31;95533.53;;;20.95
13219;BMP180;6674;49.152;11.918;2023-07-28T12:16:59;95534.31;;;20.64
13219;BMP180;6674;49.152;11.918;2023-07-28T12:19:26;95526.91;;;20.52
13219;BMP180;6674;49.152;11.918;2023-07-28T12:21:52;95526.81;;;20.76
13219;BMP180;6674;49.152;11.918;2023-07-28T12:24:19;95520.88;;;20.70
13219;BMP180;6674;49.152;11.918;2023-07-28T12:26:46;95517.81;;;21.08
13219;BMP180;6674;49.152;11.918;2023-07-28T12:29:14;95522.69;;;21.28
13219;BMP180;6674;49.152;11.918;2023-07-28T12:31:41;95517.66;;;21.45
13219;BMP180;6674;49.152;11.918;2023-07-28T12:34:08;95516.78;;;21.49
13219;BMP180;6674;49.152;11.918;2023-07-28T12:36:36;95514.34;;;21.66
13219;BMP180;6674;49.152;11.918;2023-07-28T12:39:06;95517.34;;;21.46
13219;BMP180;6674;49.152;11.918;2023-07-28T12:41:34;95527.34;;;21.31
13219;BMP180;6674;49.152;11.918;2023-07-28T12:44:01;95522.97;;;21.26
13219;BMP180;6674;49.152;11.918;2023-07-28T12:46:30;95515.97;;;21.09
13219;BMP180;6674;49.152;11.918;2023-07-28T12:48:56;95522.09;;;21.31
13219;BMP180;6674;49.152;11.918;2023-07-28T12:51:24;95530.88;;;21.53
13219;BMP180;6674;49.152;11.918;2023-07-28T12:53:51;95529.88;;;21.76
13219;BMP180;6674;49.152;11.918;2023-07-28T12:56:18;95533.72;;;22.05
13219;BMP180;6674;49.152;11.918;2023-07-28T12:58:45;95531.31;;;22.17
13219;BMP180;6674;49.152;11.918;2023-07-28T13:01:12;95533.28;;;22.25
13219;BMP180;6674;49.152;11.918;2023-07-28T13:03:40;95517.09;;;22.31
13219;BMP180;6674;49.152;11.918;2023-07-28T13:06:07;95532.22;;;22.48
13219;BMP180;6674;49.152;11.918;2023-07-28T13:08:34;95528.03;;;22.68
13219;BMP180;6674;49.152;11.918;2023-07-28T13:11:01;95528.69;;;22.74
13219;BMP180;6674;49.152;11.918;2023-07-28T13:13:28;95532.44;;;22.81
13219;BMP180;6674;49.152;11.918;2023-07-28T13:15:56;95525.19;;;22.87
13219;BMP180;6674;49.152;11.918;2023-07-28T13:18:23;95527.22;;;22.90
13219;BMP180;6674;49.152;11.918;2023-07-28T13:20:52;95507.19;;;23.02
13219;BMP180;6674;49.152;11.918;2023-07-28T13:23:19;95526.41;;;23.02
13219;BMP180;6674;49.152;11.918;2023-07-28T13:25:46;95527.47;;;23.01
13219;BMP180;6674;49.152;11.918;2023-07-28T13:28:13;95521.34;;;23.14
13219;BMP180;6674;49.152;11.918;2023-07-28T13:30:39;95529.97;;;23.06
13219;BMP180;6674;49.152;11.918;2023-07-28T13:33:07;95527.13;;;22.95
13219;BMP180;6674;49.152;11.918;2023-07-28T13:35:34;95522.53;;;23.08
13219;BMP180;6674;49.152;11.918;2023-07-28T13:38:02;95527.78;;;23.08
13219;BMP180;6674;49.152;11.918;2023-07-28T13:40:29;95519.53;;;23.23
13219;BMP180;6674;49.152;11.918;2023-07-28T13:42:56;95533.56;;;22.89
13219;BMP180;6674;49.152;11.918;2023-07-28T13:45:23;95527.66;;;23.13
13219;BMP180;6674;49.152;11.918;2023-07-28T13:47:50;95527.28;;;22.98
13219;BMP180;6674;49.152;11.918;2023-07-28T13:50:17;95522.97;;;23.02
13219;BMP180;6674;49.152;11.918;2023-07-28T13:52:45;95511.53;;;23.06
13219;BMP180;6674;49.152;11.918;2023-07-28T13:55:13;95503.53;;;23.20
13219;BMP180;6674;49.152;11.918;2023-07-28T13:57:39;95510.25;;;22.96
13219;BMP180;6674;49.152;11.918;2023-07-28T14:00:08;95510.16;;;23.00
13219;BMP180;6674;49.152;11.918;2023-07-28T14:02:35;95516.03;;;23.06
13219;BMP180;6674;49.152;11.918;2023-07-28T14:05:02;95512.38;;;23.15
13219;BMP180;6674;49.152;11.918;2023-07-28T14:07:29;95523.59;;;22.99
13219;BMP180;6674;49.152;11.918;2023-07-28T14:09:56;95516.34;;;23.04
13219;BMP180;6674;49.152;11.918;2023-07-28T14:12:25;95524.69;;;23.06